SWA459 KAUS-KTPA
Flight info
| Callsign | SWA459 |
|---|---|
| Flight time | 1h 50m |
| Altitude | 35000 |
| Route | ILEXY4 ZENZI DCT DAS DCT LLA DCT LEV Y280 CHRGE RAYZZ3 |
| Aircraft | B738/M-SDE2E3FGHIRWXY/LB1 |
Departure
| Time | 2026-05-06 15:14 |
|---|---|
| Airport | Austin Bergstrom International Airport (KAUS) |
Arrival
| Time | 2026-05-06 17:05 |
|---|---|
| Airport | Tampa International Airport (KTPA) |
| Time | Latitude | Longitude | Altitude | Speed | Heading |
|---|---|---|---|---|---|
| 2026-05-06 14:36 | 30.20138 | -97.66636 | 500 ft | 0 kts | 351° |
| 2026-05-06 14:56 | 30.20132 | -97.66634 | 500 ft | 2 kts | 351° |
| 2026-05-06 14:57 | 30.20112 | -97.66631 | 500 ft | 3 kts | 351° |
| 2026-05-06 14:57 | 30.20093 | -97.66627 | 486 ft | 3 kts | 354° |
| 2026-05-06 14:57 | 30.20074 | -97.66626 | 510 ft | 3 kts | 25° |
| 2026-05-06 14:57 | 30.20065 | -97.66634 | 500 ft | 1 kts | 82° |
| 2026-05-06 14:58 | 30.20063 | -97.66648 | 500 ft | 3 kts | 82° |
| 2026-05-06 14:58 | 30.20062 | -97.66663 | 500 ft | 0 kts | 82° |
| 2026-05-06 14:58 | 30.20062 | -97.66664 | 500 ft | 0 kts | 82° |
| 2026-05-06 15:02 | 30.20062 | -97.66663 | 500 ft | 0 kts | 82° |
| 2026-05-06 15:02 | 30.20065 | -97.66632 | 500 ft | 8 kts | 82° |
| 2026-05-06 15:02 | 30.20080 | -97.66556 | 500 ft | 11 kts | 72° |
| 2026-05-06 15:03 | 30.20091 | -97.66468 | 500 ft | 11 kts | 88° |
| 2026-05-06 15:03 | 30.20062 | -97.66396 | 500 ft | 11 kts | 163° |
| 2026-05-06 15:03 | 30.19999 | -97.66390 | 500 ft | 5 kts | 180° |
| 2026-05-06 15:03 | 30.19994 | -97.66390 | 500 ft | 0 kts | 180° |
| 2026-05-06 15:04 | 30.19962 | -97.66390 | 500 ft | 10 kts | 177° |
| 2026-05-06 15:05 | 30.19914 | -97.66321 | 500 ft | 15 kts | 92° |
| 2026-05-06 15:05 | 30.19916 | -97.66195 | 499 ft | 15 kts | 89° |
| 2026-05-06 15:05 | 30.19918 | -97.66085 | 491 ft | 12 kts | 88° |
| 2026-05-06 15:05 | 30.19920 | -97.65978 | 487 ft | 18 kts | 89° |
| 2026-05-06 15:06 | 30.19873 | -97.65903 | 477 ft | 13 kts | 178° |
| 2026-05-06 15:06 | 30.19789 | -97.65902 | 478 ft | 7 kts | 179° |
| 2026-05-06 15:06 | 30.19748 | -97.65901 | 481 ft | 6 kts | 179° |
| 2026-05-06 15:06 | 30.19708 | -97.65901 | 479 ft | 6 kts | 179° |
| 2026-05-06 15:07 | 30.19669 | -97.65899 | 481 ft | 6 kts | 178° |
| 2026-05-06 15:07 | 30.19620 | -97.65897 | 478 ft | 9 kts | 178° |
| 2026-05-06 15:07 | 30.19549 | -97.65895 | 483 ft | 11 kts | 178° |
| 2026-05-06 15:07 | 30.19471 | -97.65893 | 487 ft | 11 kts | 179° |
| 2026-05-06 15:08 | 30.19395 | -97.65891 | 485 ft | 11 kts | 179° |
| 2026-05-06 15:08 | 30.19321 | -97.65890 | 484 ft | 10 kts | 179° |
| 2026-05-06 15:08 | 30.19245 | -97.65888 | 483 ft | 12 kts | 179° |
| 2026-05-06 15:08 | 30.19159 | -97.65886 | 483 ft | 13 kts | 178° |
| 2026-05-06 15:09 | 30.19057 | -97.65883 | 489 ft | 16 kts | 178° |
| 2026-05-06 15:09 | 30.18933 | -97.65880 | 484 ft | 20 kts | 179° |
| 2026-05-06 15:09 | 30.18777 | -97.65876 | 481 ft | 23 kts | 178° |
| 2026-05-06 15:09 | 30.18619 | -97.65871 | 481 ft | 22 kts | 179° |
| 2026-05-06 15:10 | 30.18482 | -97.65869 | 477 ft | 20 kts | 179° |
| 2026-05-06 15:10 | 30.18344 | -97.65866 | 476 ft | 20 kts | 179° |
| 2026-05-06 15:10 | 30.18216 | -97.65861 | 476 ft | 17 kts | 178° |
| 2026-05-06 15:10 | 30.18098 | -97.65858 | 480 ft | 14 kts | 179° |
| 2026-05-06 15:11 | 30.18050 | -97.65857 | 479 ft | 0 kts | 179° |
| 2026-05-06 15:11 | 30.18047 | -97.65857 | 479 ft | 1 kts | 179° |
| 2026-05-06 15:11 | 30.18014 | -97.65856 | 481 ft | 11 kts | 178° |
| 2026-05-06 15:11 | 30.17923 | -97.65834 | 484 ft | 9 kts | 131° |
| 2026-05-06 15:12 | 30.17921 | -97.65829 | 484 ft | 0 kts | 122° |
| 2026-05-06 15:12 | 30.17916 | -97.65792 | 486 ft | 10 kts | 91° |
| 2026-05-06 15:13 | 30.17953 | -97.65727 | 481 ft | 6 kts | 5° |
| 2026-05-06 15:13 | 30.17961 | -97.65728 | 482 ft | 0 kts | 359° |
| 2026-05-06 15:14 | 30.18063 | -97.65729 | 481 ft | 51 kts | 359° |
| 2026-05-06 15:14 | 30.18714 | -97.65748 | 483 ft | 133 kts | 358° |
| 2026-05-06 15:14 | 30.19858 | -97.65766 | 718 ft | 184 kts | 359° |
| 2026-05-06 15:14 | 30.21211 | -97.65802 | 1460 ft | 209 kts | 6° |
| 2026-05-06 15:15 | 30.22576 | -97.65218 | 2325 ft | 205 kts | 25° |
| 2026-05-06 15:15 | 30.23863 | -97.64574 | 3235 ft | 197 kts | 23° |
| 2026-05-06 15:15 | 30.25125 | -97.63972 | 4036 ft | 199 kts | 23° |
| 2026-05-06 15:15 | 30.26411 | -97.63361 | 4798 ft | 201 kts | 22° |
| 2026-05-06 15:16 | 30.27715 | -97.62740 | 5508 ft | 204 kts | 23° |
| 2026-05-06 15:16 | 30.29034 | -97.62114 | 6197 ft | 205 kts | 23° |
| 2026-05-06 15:16 | 30.30342 | -97.61473 | 6857 ft | 204 kts | 30° |
| 2026-05-06 15:16 | 30.31271 | -97.60261 | 7487 ft | 211 kts | 72° |
| 2026-05-06 15:17 | 30.31529 | -97.58492 | 7741 ft | 237 kts | 86° |
| 2026-05-06 15:17 | 30.31692 | -97.56483 | 7940 ft | 263 kts | 86° |
| 2026-05-06 15:17 | 30.31885 | -97.54331 | 8416 ft | 274 kts | 85° |
| 2026-05-06 15:17 | 30.32105 | -97.52128 | 8914 ft | 285 kts | 85° |
| 2026-05-06 15:18 | 30.32357 | -97.49811 | 9421 ft | 296 kts | 85° |
| 2026-05-06 15:18 | 30.32635 | -97.47408 | 9910 ft | 307 kts | 84° |
| 2026-05-06 15:18 | 30.32932 | -97.44925 | 10380 ft | 317 kts | 84° |
| 2026-05-06 15:18 | 30.33250 | -97.42320 | 10872 ft | 336 kts | 84° |
| 2026-05-06 15:19 | 30.33590 | -97.39567 | 11369 ft | 355 kts | 84° |
| 2026-05-06 15:19 | 30.33951 | -97.36672 | 11874 ft | 372 kts | 84° |
| 2026-05-06 15:19 | 30.34330 | -97.33651 | 12487 ft | 386 kts | 84° |
| 2026-05-06 15:19 | 30.34723 | -97.30523 | 13107 ft | 398 kts | 84° |
| 2026-05-06 15:20 | 30.35126 | -97.27308 | 13749 ft | 408 kts | 84° |
| 2026-05-06 15:20 | 30.35537 | -97.24014 | 14340 ft | 418 kts | 84° |
| 2026-05-06 15:20 | 30.35920 | -97.20645 | 14920 ft | 426 kts | 88° |
| 2026-05-06 15:20 | 30.35926 | -97.17211 | 15515 ft | 428 kts | 98° |
| 2026-05-06 15:21 | 30.35670 | -97.13762 | 16139 ft | 434 kts | 99° |
| 2026-05-06 15:21 | 30.35418 | -97.10242 | 16760 ft | 440 kts | 99° |
| 2026-05-06 15:21 | 30.35193 | -97.06684 | 17394 ft | 445 kts | 98° |
| 2026-05-06 15:21 | 30.34981 | -97.03090 | 18034 ft | 449 kts | 99° |
| 2026-05-06 15:22 | 30.34773 | -96.99470 | 18616 ft | 452 kts | 98° |
| 2026-05-06 15:22 | 30.34562 | -96.95828 | 19184 ft | 455 kts | 98° |
| 2026-05-06 15:22 | 30.34349 | -96.92167 | 19760 ft | 457 kts | 98° |
| 2026-05-06 15:22 | 30.34133 | -96.88495 | 20330 ft | 458 kts | 98° |
| 2026-05-06 15:23 | 30.33914 | -96.84813 | 20923 ft | 459 kts | 98° |
| 2026-05-06 15:23 | 30.33693 | -96.81127 | 21532 ft | 459 kts | 98° |
| 2026-05-06 15:23 | 30.33468 | -96.77444 | 22136 ft | 459 kts | 98° |
| 2026-05-06 15:23 | 30.33238 | -96.73750 | 22653 ft | 462 kts | 98° |
| 2026-05-06 15:24 | 30.33008 | -96.70075 | 23126 ft | 464 kts | 98° |
| 2026-05-06 15:24 | 30.32774 | -96.66339 | 23603 ft | 466 kts | 98° |
| 2026-05-06 15:24 | 30.32539 | -96.62589 | 23994 ft | 469 kts | 98° |
| 2026-05-06 15:24 | 30.32302 | -96.58812 | 24381 ft | 471 kts | 98° |
| 2026-05-06 15:25 | 30.32063 | -96.55019 | 24764 ft | 472 kts | 98° |
| 2026-05-06 15:25 | 30.31822 | -96.51223 | 25155 ft | 473 kts | 98° |
| 2026-05-06 15:25 | 30.31581 | -96.47423 | 25542 ft | 474 kts | 98° |
| 2026-05-06 15:25 | 30.31340 | -96.43612 | 25961 ft | 475 kts | 98° |
| 2026-05-06 15:26 | 30.31099 | -96.39801 | 26355 ft | 476 kts | 99° |
| 2026-05-06 15:26 | 30.30855 | -96.35969 | 26708 ft | 478 kts | 99° |
| 2026-05-06 15:26 | 30.30609 | -96.32124 | 27069 ft | 480 kts | 99° |
| 2026-05-06 15:26 | 30.30362 | -96.28262 | 27422 ft | 482 kts | 99° |
| 2026-05-06 15:27 | 30.30112 | -96.24389 | 27709 ft | 485 kts | 99° |
| 2026-05-06 15:27 | 30.29860 | -96.20494 | 28001 ft | 487 kts | 99° |
| 2026-05-06 15:27 | 30.29605 | -96.16575 | 28299 ft | 490 kts | 99° |
| 2026-05-06 15:27 | 30.29348 | -96.12636 | 28598 ft | 492 kts | 99° |
| 2026-05-06 15:28 | 30.29090 | -96.08687 | 28921 ft | 494 kts | 99° |
| 2026-05-06 15:28 | 30.28828 | -96.04719 | 29235 ft | 495 kts | 99° |
| 2026-05-06 15:28 | 30.28567 | -96.00738 | 29556 ft | 497 kts | 99° |
| 2026-05-06 15:28 | 30.28306 | -95.96746 | 29827 ft | 499 kts | 99° |
| 2026-05-06 15:29 | 30.28043 | -95.92731 | 30063 ft | 501 kts | 99° |
| 2026-05-06 15:29 | 30.27779 | -95.88707 | 30306 ft | 503 kts | 99° |
| 2026-05-06 15:29 | 30.27516 | -95.84722 | 30561 ft | 504 kts | 99° |
| 2026-05-06 15:29 | 30.27247 | -95.80660 | 30831 ft | 506 kts | 99° |
| 2026-05-06 15:30 | 30.26976 | -95.76597 | 31088 ft | 508 kts | 99° |
| 2026-05-06 15:30 | 30.26703 | -95.72521 | 31353 ft | 509 kts | 99° |
| 2026-05-06 15:30 | 30.26427 | -95.68427 | 31587 ft | 510 kts | 99° |
| 2026-05-06 15:30 | 30.26151 | -95.64336 | 31850 ft | 511 kts | 99° |
| 2026-05-06 15:31 | 30.25872 | -95.60232 | 32113 ft | 511 kts | 99° |
| 2026-05-06 15:31 | 30.25592 | -95.56127 | 32367 ft | 512 kts | 99° |
| 2026-05-06 15:31 | 30.25311 | -95.52020 | 32623 ft | 512 kts | 99° |
| 2026-05-06 15:32 | 30.24744 | -95.43810 | 33052 ft | 514 kts | 99° |
| 2026-05-06 15:32 | 30.24456 | -95.39683 | 33242 ft | 515 kts | 99° |
| 2026-05-06 15:32 | 30.24167 | -95.35544 | 33418 ft | 516 kts | 99° |
| 2026-05-06 15:32 | 30.23875 | -95.31391 | 33596 ft | 518 kts | 99° |
| 2026-05-06 15:33 | 30.23586 | -95.27291 | 33765 ft | 519 kts | 98° |
| 2026-05-06 15:33 | 30.23291 | -95.23124 | 33934 ft | 519 kts | 98° |
| 2026-05-06 15:33 | 30.22995 | -95.18961 | 34086 ft | 520 kts | 98° |
| 2026-05-06 15:33 | 30.22697 | -95.14784 | 34250 ft | 520 kts | 99° |
| 2026-05-06 15:34 | 30.22397 | -95.10610 | 34399 ft | 521 kts | 99° |
| 2026-05-06 15:34 | 30.22096 | -95.06431 | 34555 ft | 521 kts | 99° |
| 2026-05-06 15:34 | 30.21793 | -95.02247 | 34702 ft | 522 kts | 99° |
| 2026-05-06 15:34 | 30.21489 | -94.98064 | 34868 ft | 522 kts | 99° |
| 2026-05-06 15:35 | 30.20870 | -94.89640 | 34901 ft | 530 kts | 99° |
| 2026-05-06 15:35 | 30.20242 | -94.81144 | 34911 ft | 538 kts | 99° |
| 2026-05-06 15:36 | 30.19602 | -94.72505 | 34890 ft | 537 kts | 99° |
| 2026-05-06 15:36 | 30.18896 | -94.63991 | 34892 ft | 527 kts | 104° |
| 2026-05-06 15:37 | 30.17218 | -94.55817 | 34905 ft | 521 kts | 110° |
| 2026-05-06 15:37 | 30.15319 | -94.47726 | 34912 ft | 521 kts | 111° |
| 2026-05-06 15:38 | 30.13452 | -94.39671 | 34926 ft | 522 kts | 110° |
| 2026-05-06 15:38 | 30.11610 | -94.31538 | 34929 ft | 523 kts | 110° |
| 2026-05-06 15:39 | 30.09777 | -94.23383 | 34922 ft | 524 kts | 110° |
| 2026-05-06 15:39 | 30.07935 | -94.15219 | 34923 ft | 525 kts | 110° |
| 2026-05-06 15:40 | 30.06096 | -94.07104 | 34912 ft | 526 kts | 110° |
| 2026-05-06 15:40 | 30.04238 | -93.98937 | 34913 ft | 526 kts | 110° |
| 2026-05-06 15:41 | 30.02374 | -93.90773 | 34959 ft | 526 kts | 110° |
| 2026-05-06 15:41 | 30.00504 | -93.82606 | 34958 ft | 526 kts | 110° |
| 2026-05-06 15:42 | 29.98629 | -93.74440 | 34956 ft | 525 kts | 110° |
| 2026-05-06 15:42 | 29.96754 | -93.66299 | 34943 ft | 525 kts | 110° |
| 2026-05-06 15:43 | 29.94889 | -93.58227 | 34943 ft | 524 kts | 110° |
| 2026-05-06 15:43 | 29.93008 | -93.50115 | 34949 ft | 523 kts | 110° |
| 2026-05-06 15:44 | 29.91120 | -93.41990 | 34954 ft | 523 kts | 110° |
| 2026-05-06 15:44 | 29.89235 | -93.33906 | 34952 ft | 522 kts | 110° |
| 2026-05-06 15:45 | 29.87345 | -93.25827 | 34947 ft | 522 kts | 110° |
| 2026-05-06 15:45 | 29.85449 | -93.17742 | 34959 ft | 522 kts | 110° |
| 2026-05-06 15:46 | 29.83549 | -93.09667 | 34944 ft | 522 kts | 110° |
| 2026-05-06 15:46 | 29.81660 | -93.01660 | 34962 ft | 521 kts | 110° |
| 2026-05-06 15:47 | 29.79752 | -92.93597 | 34966 ft | 521 kts | 110° |
| 2026-05-06 15:47 | 29.77839 | -92.85539 | 34964 ft | 521 kts | 110° |
| 2026-05-06 15:48 | 29.75922 | -92.77485 | 34962 ft | 522 kts | 110° |
| 2026-05-06 15:48 | 29.74324 | -92.70787 | 34965 ft | 521 kts | 110° |
| 2026-05-06 15:49 | 29.72398 | -92.62739 | 34964 ft | 521 kts | 110° |
| 2026-05-06 15:49 | 29.70467 | -92.54692 | 34969 ft | 521 kts | 110° |
| 2026-05-06 15:50 | 29.68532 | -92.46651 | 34964 ft | 521 kts | 110° |
| 2026-05-06 15:50 | 29.66593 | -92.38614 | 34966 ft | 521 kts | 110° |
| 2026-05-06 15:51 | 29.64786 | -92.30584 | 34969 ft | 523 kts | 107° |
| 2026-05-06 15:51 | 29.63148 | -92.22433 | 34969 ft | 523 kts | 107° |
| 2026-05-06 15:52 | 29.61511 | -92.14276 | 34977 ft | 523 kts | 107° |
| 2026-05-06 15:52 | 29.59835 | -92.06126 | 34974 ft | 524 kts | 107° |
| 2026-05-06 15:53 | 29.58136 | -91.97981 | 34972 ft | 523 kts | 107° |
| 2026-05-06 15:53 | 29.56445 | -91.89910 | 34983 ft | 523 kts | 107° |
| 2026-05-06 15:54 | 29.54738 | -91.81780 | 34983 ft | 522 kts | 107° |
| 2026-05-06 15:54 | 29.53030 | -91.73665 | 34982 ft | 522 kts | 107° |
| 2026-05-06 15:55 | 29.51318 | -91.65557 | 34990 ft | 522 kts | 107° |
| 2026-05-06 15:55 | 29.49599 | -91.57444 | 34986 ft | 522 kts | 107° |
| 2026-05-06 15:56 | 29.47887 | -91.49386 | 34997 ft | 523 kts | 107° |
| 2026-05-06 15:56 | 29.46161 | -91.41286 | 34989 ft | 522 kts | 107° |
| 2026-05-06 15:57 | 29.44430 | -91.33191 | 34997 ft | 522 kts | 107° |
| 2026-05-06 15:57 | 29.42696 | -91.25108 | 34999 ft | 521 kts | 107° |
| 2026-05-06 15:58 | 29.40956 | -91.17027 | 34992 ft | 522 kts | 107° |
| 2026-05-06 15:58 | 29.39224 | -91.09004 | 35003 ft | 521 kts | 107° |
| 2026-05-06 15:59 | 29.37479 | -91.00944 | 35003 ft | 520 kts | 107° |
| 2026-05-06 15:59 | 29.35730 | -90.92894 | 35003 ft | 520 kts | 107° |
| 2026-05-06 16:00 | 29.33977 | -90.84848 | 35000 ft | 520 kts | 107° |
| 2026-05-06 16:00 | 29.32220 | -90.76811 | 35006 ft | 520 kts | 107° |
| 2026-05-06 16:01 | 29.30460 | -90.68782 | 34998 ft | 520 kts | 107° |
| 2026-05-06 16:01 | 29.28695 | -90.60758 | 35001 ft | 519 kts | 107° |
| 2026-05-06 16:02 | 29.26935 | -90.52779 | 35007 ft | 519 kts | 108° |
| 2026-05-06 16:02 | 29.25159 | -90.44758 | 35016 ft | 519 kts | 107° |
| 2026-05-06 16:03 | 29.23382 | -90.36742 | 35025 ft | 519 kts | 107° |
| 2026-05-06 16:03 | 29.21600 | -90.28736 | 35020 ft | 519 kts | 107° |
| 2026-05-06 16:04 | 29.19822 | -90.20772 | 35021 ft | 519 kts | 107° |
| 2026-05-06 16:04 | 29.18030 | -90.12762 | 35016 ft | 519 kts | 107° |
| 2026-05-06 16:05 | 29.16291 | -90.04738 | 35019 ft | 519 kts | 106° |
| 2026-05-06 16:05 | 29.14673 | -89.96683 | 35016 ft | 519 kts | 105° |
| 2026-05-06 16:06 | 29.13061 | -89.88628 | 35021 ft | 519 kts | 105° |
| 2026-05-06 16:06 | 29.11437 | -89.80641 | 35018 ft | 518 kts | 106° |
| 2026-05-06 16:07 | 29.09789 | -89.72614 | 35023 ft | 518 kts | 106° |
| 2026-05-06 16:07 | 29.08135 | -89.64594 | 35022 ft | 518 kts | 106° |
| 2026-05-06 16:08 | 29.06480 | -89.56587 | 35028 ft | 517 kts | 105° |
| 2026-05-06 16:08 | 29.04830 | -89.48626 | 35026 ft | 517 kts | 105° |
| 2026-05-06 16:09 | 29.03170 | -89.40637 | 35031 ft | 516 kts | 105° |
| 2026-05-06 16:09 | 29.01505 | -89.32656 | 35031 ft | 516 kts | 105° |
| 2026-05-06 16:10 | 28.99837 | -89.24681 | 35035 ft | 516 kts | 105° |
| 2026-05-06 16:10 | 28.98163 | -89.16706 | 35033 ft | 516 kts | 105° |
| 2026-05-06 16:11 | 28.96487 | -89.08748 | 35037 ft | 515 kts | 105° |
| 2026-05-06 16:11 | 28.94807 | -89.00792 | 35034 ft | 515 kts | 105° |
| 2026-05-06 16:12 | 28.93122 | -88.92838 | 35038 ft | 515 kts | 105° |
| 2026-05-06 16:12 | 28.91435 | -88.84895 | 35030 ft | 515 kts | 105° |
| 2026-05-06 16:13 | 28.89755 | -88.77012 | 35041 ft | 514 kts | 105° |
| 2026-05-06 16:13 | 28.88039 | -88.69093 | 35035 ft | 513 kts | 107° |
| 2026-05-06 16:14 | 28.85967 | -88.61309 | 35045 ft | 512 kts | 110° |
| 2026-05-06 16:14 | 28.83752 | -88.53590 | 35041 ft | 512 kts | 110° |
| 2026-05-06 16:15 | 28.81566 | -88.45849 | 35044 ft | 512 kts | 110° |
| 2026-05-06 16:15 | 28.79418 | -88.38117 | 35043 ft | 512 kts | 109° |
| 2026-05-06 16:16 | 28.77269 | -88.30377 | 35043 ft | 511 kts | 109° |
| 2026-05-06 16:16 | 28.75117 | -88.22656 | 35043 ft | 511 kts | 109° |
| 2026-05-06 16:17 | 28.72957 | -88.14929 | 35049 ft | 511 kts | 109° |
| 2026-05-06 16:17 | 28.70806 | -88.07257 | 35044 ft | 511 kts | 109° |
| 2026-05-06 16:18 | 28.68633 | -87.99544 | 35199 ft | 508 kts | 109° |
| 2026-05-06 16:18 | 28.67553 | -87.95720 | 35435 ft | 507 kts | 109° |
| 2026-05-06 16:18 | 28.66471 | -87.91894 | 35664 ft | 507 kts | 109° |
| 2026-05-06 16:19 | 28.65389 | -87.88071 | 35904 ft | 507 kts | 109° |
| 2026-05-06 16:19 | 28.64305 | -87.84248 | 36145 ft | 507 kts | 109° |
| 2026-05-06 16:19 | 28.63220 | -87.80423 | 36384 ft | 506 kts | 109° |
| 2026-05-06 16:19 | 28.62138 | -87.76610 | 36628 ft | 506 kts | 109° |
| 2026-05-06 16:20 | 28.61056 | -87.72801 | 36869 ft | 505 kts | 109° |
| 2026-05-06 16:20 | 28.59989 | -87.69052 | 37118 ft | 504 kts | 109° |
| 2026-05-06 16:20 | 28.58909 | -87.65262 | 37353 ft | 503 kts | 109° |
| 2026-05-06 16:20 | 28.57829 | -87.61474 | 37544 ft | 504 kts | 109° |
| 2026-05-06 16:21 | 28.56745 | -87.57680 | 37714 ft | 504 kts | 109° |
| 2026-05-06 16:21 | 28.55660 | -87.53885 | 37899 ft | 504 kts | 109° |
| 2026-05-06 16:21 | 28.54575 | -87.50093 | 38049 ft | 505 kts | 109° |
| 2026-05-06 16:21 | 28.53484 | -87.46290 | 38043 ft | 508 kts | 109° |
| 2026-05-06 16:22 | 28.51281 | -87.38615 | 38068 ft | 513 kts | 109° |
| 2026-05-06 16:22 | 28.49049 | -87.30862 | 38069 ft | 518 kts | 109° |
| 2026-05-06 16:23 | 28.46799 | -87.23060 | 38067 ft | 521 kts | 109° |
| 2026-05-06 16:23 | 28.44537 | -87.15236 | 38052 ft | 518 kts | 109° |
| 2026-05-06 16:24 | 28.42303 | -87.07525 | 38055 ft | 511 kts | 109° |
| 2026-05-06 16:24 | 28.40093 | -86.99920 | 38065 ft | 510 kts | 109° |
| 2026-05-06 16:25 | 28.37868 | -86.92277 | 38071 ft | 510 kts | 109° |
| 2026-05-06 16:25 | 28.35629 | -86.84606 | 38074 ft | 510 kts | 109° |
| 2026-05-06 16:26 | 28.33390 | -86.76950 | 38073 ft | 511 kts | 109° |
| 2026-05-06 16:26 | 28.31141 | -86.69278 | 38073 ft | 513 kts | 109° |
| 2026-05-06 16:27 | 28.28891 | -86.61586 | 38076 ft | 514 kts | 109° |
| 2026-05-06 16:27 | 28.26649 | -86.53917 | 38073 ft | 516 kts | 109° |
| 2026-05-06 16:28 | 28.24383 | -86.46183 | 38079 ft | 517 kts | 108° |
| 2026-05-06 16:28 | 28.22106 | -86.38435 | 38076 ft | 518 kts | 108° |
| 2026-05-06 16:29 | 28.19818 | -86.30671 | 38086 ft | 519 kts | 108° |
| 2026-05-06 16:29 | 28.17526 | -86.22909 | 38080 ft | 520 kts | 108° |
| 2026-05-06 16:30 | 28.15613 | -86.16444 | 38083 ft | 520 kts | 108° |
| 2026-05-06 16:30 | 28.12922 | -86.07372 | 38078 ft | 519 kts | 108° |
| 2026-05-06 16:31 | 28.10632 | -85.99670 | 38085 ft | 519 kts | 108° |
| 2026-05-06 16:31 | 28.08321 | -85.91919 | 38079 ft | 518 kts | 108° |
| 2026-05-06 16:32 | 28.06012 | -85.84189 | 38088 ft | 517 kts | 108° |
| 2026-05-06 16:32 | 28.03698 | -85.76461 | 38083 ft | 517 kts | 108° |
| 2026-05-06 16:33 | 28.01402 | -85.68811 | 38093 ft | 516 kts | 108° |
| 2026-05-06 16:34 | 27.97927 | -85.57264 | 38089 ft | 516 kts | 108° |
| 2026-05-06 16:34 | 27.95610 | -85.49588 | 38085 ft | 516 kts | 108° |
| 2026-05-06 16:35 | 27.93678 | -85.43197 | 38020 ft | 518 kts | 108° |
| 2026-05-06 16:35 | 27.92504 | -85.39320 | 37596 ft | 524 kts | 108° |
| 2026-05-06 16:35 | 27.90920 | -85.34094 | 36904 ft | 523 kts | 108° |
| 2026-05-06 16:35 | 27.90140 | -85.31524 | 36571 ft | 521 kts | 108° |
| 2026-05-06 16:36 | 27.88967 | -85.27665 | 36082 ft | 517 kts | 108° |
| 2026-05-06 16:36 | 27.87962 | -85.23782 | 35593 ft | 513 kts | 100° |
| 2026-05-06 16:36 | 27.87267 | -85.19840 | 35139 ft | 509 kts | 98° |
| 2026-05-06 16:36 | 27.86640 | -85.15898 | 34685 ft | 511 kts | 98° |
| 2026-05-06 16:37 | 27.86018 | -85.11915 | 34239 ft | 515 kts | 98° |
| 2026-05-06 16:37 | 27.85380 | -85.07913 | 33749 ft | 520 kts | 98° |
| 2026-05-06 16:37 | 27.84719 | -85.03895 | 33246 ft | 520 kts | 99° |
| 2026-05-06 16:37 | 27.84044 | -84.99885 | 32742 ft | 519 kts | 99° |
| 2026-05-06 16:38 | 27.83363 | -84.95888 | 32249 ft | 518 kts | 99° |
| 2026-05-06 16:38 | 27.82680 | -84.91890 | 31773 ft | 517 kts | 99° |
| 2026-05-06 16:38 | 27.82009 | -84.87954 | 31302 ft | 516 kts | 99° |
| 2026-05-06 16:38 | 27.81343 | -84.83965 | 30834 ft | 515 kts | 97° |
| 2026-05-06 16:39 | 27.81172 | -84.79952 | 30354 ft | 510 kts | 84° |
| 2026-05-06 16:39 | 27.81387 | -84.75946 | 29893 ft | 513 kts | 83° |
| 2026-05-06 16:39 | 27.81642 | -84.71908 | 29365 ft | 517 kts | 83° |
| 2026-05-06 16:39 | 27.81896 | -84.67847 | 28845 ft | 519 kts | 83° |
| 2026-05-06 16:40 | 27.82130 | -84.63797 | 28325 ft | 513 kts | 83° |
| 2026-05-06 16:40 | 27.82339 | -84.59803 | 27821 ft | 505 kts | 84° |
| 2026-05-06 16:40 | 27.82531 | -84.55866 | 27321 ft | 498 kts | 84° |
| 2026-05-06 16:40 | 27.82715 | -84.51958 | 26842 ft | 497 kts | 84° |
| 2026-05-06 16:41 | 27.82897 | -84.48048 | 26366 ft | 498 kts | 84° |
| 2026-05-06 16:41 | 27.83078 | -84.44136 | 25913 ft | 499 kts | 84° |
| 2026-05-06 16:41 | 27.83256 | -84.40272 | 25451 ft | 499 kts | 84° |
| 2026-05-06 16:41 | 27.83436 | -84.36358 | 24997 ft | 498 kts | 84° |
| 2026-05-06 16:42 | 27.83615 | -84.32449 | 24550 ft | 497 kts | 84° |
| 2026-05-06 16:42 | 27.83792 | -84.28562 | 24118 ft | 493 kts | 84° |
| 2026-05-06 16:42 | 27.83965 | -84.24719 | 23671 ft | 486 kts | 84° |
| 2026-05-06 16:42 | 27.84135 | -84.20934 | 23152 ft | 479 kts | 84° |
| 2026-05-06 16:43 | 27.84302 | -84.17192 | 22640 ft | 473 kts | 84° |
| 2026-05-06 16:43 | 27.84467 | -84.13496 | 22141 ft | 469 kts | 84° |
| 2026-05-06 16:43 | 27.84628 | -84.09879 | 21652 ft | 464 kts | 84° |
| 2026-05-06 16:43 | 27.84788 | -84.06249 | 21230 ft | 461 kts | 84° |
| 2026-05-06 16:44 | 27.84949 | -84.02608 | 21140 ft | 464 kts | 84° |
| 2026-05-06 16:44 | 27.85108 | -83.98967 | 21101 ft | 461 kts | 84° |
| 2026-05-06 16:44 | 27.85265 | -83.95349 | 21101 ft | 461 kts | 84° |
| 2026-05-06 16:44 | 27.85423 | -83.91698 | 21112 ft | 469 kts | 84° |
| 2026-05-06 16:45 | 27.85633 | -83.88000 | 21106 ft | 475 kts | 82° |
| 2026-05-06 16:45 | 27.85927 | -83.84291 | 20937 ft | 473 kts | 82° |
| 2026-05-06 16:45 | 27.86253 | -83.80591 | 20483 ft | 472 kts | 81° |
| 2026-05-06 16:45 | 27.86583 | -83.76913 | 20019 ft | 469 kts | 81° |
| 2026-05-06 16:46 | 27.86902 | -83.73272 | 19554 ft | 461 kts | 82° |
| 2026-05-06 16:46 | 27.87200 | -83.69737 | 19108 ft | 456 kts | 82° |
| 2026-05-06 16:46 | 27.87494 | -83.66177 | 18662 ft | 455 kts | 82° |
| 2026-05-06 16:46 | 27.87784 | -83.62609 | 18199 ft | 456 kts | 82° |
| 2026-05-06 16:47 | 27.88071 | -83.59042 | 17691 ft | 455 kts | 82° |
| 2026-05-06 16:47 | 27.88355 | -83.55479 | 17186 ft | 454 kts | 82° |
| 2026-05-06 16:47 | 27.88637 | -83.51924 | 16702 ft | 453 kts | 82° |
| 2026-05-06 16:47 | 27.88918 | -83.48378 | 16213 ft | 452 kts | 82° |
| 2026-05-06 16:48 | 27.89198 | -83.44835 | 15730 ft | 452 kts | 83° |
| 2026-05-06 16:48 | 27.89477 | -83.41303 | 15262 ft | 449 kts | 83° |
| 2026-05-06 16:48 | 27.89750 | -83.37819 | 14791 ft | 441 kts | 83° |
| 2026-05-06 16:48 | 27.90017 | -83.34406 | 14332 ft | 431 kts | 83° |
| 2026-05-06 16:49 | 27.90278 | -83.31058 | 13872 ft | 423 kts | 83° |
| 2026-05-06 16:49 | 27.90530 | -83.27824 | 13369 ft | 415 kts | 83° |
| 2026-05-06 16:49 | 27.90782 | -83.24596 | 12860 ft | 408 kts | 83° |
| 2026-05-06 16:49 | 27.91028 | -83.21421 | 12371 ft | 404 kts | 83° |
| 2026-05-06 16:50 | 27.91278 | -83.18268 | 11888 ft | 400 kts | 82° |
| 2026-05-06 16:50 | 27.91972 | -83.15261 | 11389 ft | 392 kts | 64° |
| 2026-05-06 16:50 | 27.93198 | -83.12536 | 10938 ft | 385 kts | 61° |
| 2026-05-06 16:50 | 27.94431 | -83.09868 | 10458 ft | 380 kts | 61° |
| 2026-05-06 16:51 | 27.95639 | -83.07230 | 10111 ft | 374 kts | 62° |
| 2026-05-06 16:51 | 27.96816 | -83.04629 | 9906 ft | 368 kts | 62° |
| 2026-05-06 16:51 | 27.97959 | -83.02079 | 9642 ft | 358 kts | 62° |
| 2026-05-06 16:51 | 27.99064 | -82.99598 | 9377 ft | 349 kts | 62° |
| 2026-05-06 16:52 | 28.00141 | -82.97173 | 9116 ft | 340 kts | 62° |
| 2026-05-06 16:52 | 28.01176 | -82.94839 | 8863 ft | 333 kts | 63° |
| 2026-05-06 16:52 | 28.02203 | -82.92523 | 8612 ft | 326 kts | 63° |
| 2026-05-06 16:52 | 28.03209 | -82.90254 | 8358 ft | 319 kts | 63° |
| 2026-05-06 16:53 | 28.04196 | -82.88027 | 8112 ft | 313 kts | 63° |
| 2026-05-06 16:53 | 28.05164 | -82.85839 | 7878 ft | 308 kts | 63° |
| 2026-05-06 16:53 | 28.06050 | -82.83662 | 7670 ft | 301 kts | 73° |
| 2026-05-06 16:53 | 28.06302 | -82.81336 | 7492 ft | 295 kts | 89° |
| 2026-05-06 16:54 | 28.06349 | -82.79024 | 7287 ft | 291 kts | 90° |
| 2026-05-06 16:54 | 28.06387 | -82.76742 | 7113 ft | 289 kts | 90° |
| 2026-05-06 16:54 | 28.06429 | -82.74500 | 6920 ft | 289 kts | 89° |
| 2026-05-06 16:54 | 28.06481 | -82.72232 | 6742 ft | 287 kts | 89° |
| 2026-05-06 16:55 | 28.06536 | -82.69979 | 6549 ft | 286 kts | 89° |
| 2026-05-06 16:55 | 28.06593 | -82.67736 | 6349 ft | 284 kts | 89° |
| 2026-05-06 16:55 | 28.06660 | -82.65509 | 6135 ft | 282 kts | 85° |
| 2026-05-06 16:55 | 28.07256 | -82.63421 | 6024 ft | 280 kts | 58° |
| 2026-05-06 16:56 | 28.08619 | -82.61887 | 6000 ft | 277 kts | 30° |
| 2026-05-06 16:56 | 28.10400 | -82.61167 | 5994 ft | 270 kts | 5° |
| 2026-05-06 16:56 | 28.12258 | -82.61102 | 5884 ft | 267 kts | 359° |
| 2026-05-06 16:56 | 28.14116 | -82.61114 | 5624 ft | 266 kts | 359° |
| 2026-05-06 16:57 | 28.15962 | -82.61131 | 5376 ft | 265 kts | 360° |
| 2026-05-06 16:57 | 28.17798 | -82.61126 | 5148 ft | 263 kts | 0° |
| 2026-05-06 16:57 | 28.19628 | -82.61100 | 4890 ft | 262 kts | 1° |
| 2026-05-06 16:57 | 28.21453 | -82.61070 | 4629 ft | 262 kts | 1° |
| 2026-05-06 16:58 | 28.23271 | -82.61043 | 4393 ft | 261 kts | 1° |
| 2026-05-06 16:58 | 28.25023 | -82.60643 | 4126 ft | 257 kts | 29° |
| 2026-05-06 16:58 | 28.26363 | -82.59367 | 3991 ft | 250 kts | 57° |
| 2026-05-06 16:58 | 28.26941 | -82.57577 | 3836 ft | 239 kts | 88° |
| 2026-05-06 16:59 | 28.26620 | -82.55781 | 3727 ft | 232 kts | 119° |
| 2026-05-06 16:59 | 28.25538 | -82.54470 | 3631 ft | 229 kts | 148° |
| 2026-05-06 16:59 | 28.24038 | -82.53889 | 3514 ft | 229 kts | 172° |
| 2026-05-06 16:59 | 28.22485 | -82.53784 | 3358 ft | 224 kts | 177° |
| 2026-05-06 17:00 | 28.20950 | -82.53746 | 3247 ft | 218 kts | 176° |
| 2026-05-06 17:00 | 28.19448 | -82.53701 | 3144 ft | 212 kts | 176° |
| 2026-05-06 17:00 | 28.18013 | -82.53653 | 3038 ft | 202 kts | 176° |
| 2026-05-06 17:00 | 28.16605 | -82.53599 | 3032 ft | 202 kts | 176° |
| 2026-05-06 17:01 | 28.15213 | -82.53578 | 3004 ft | 198 kts | 179° |
| 2026-05-06 17:01 | 28.13844 | -82.53625 | 2965 ft | 197 kts | 180° |
| 2026-05-06 17:01 | 28.12439 | -82.53683 | 2627 ft | 204 kts | 179° |
| 2026-05-06 17:01 | 28.11029 | -82.53735 | 2338 ft | 200 kts | 180° |
| 2026-05-06 17:02 | 28.09649 | -82.53785 | 2073 ft | 197 kts | 179° |
| 2026-05-06 17:02 | 28.08298 | -82.53828 | 1797 ft | 188 kts | 180° |
| 2026-05-06 17:02 | 28.07030 | -82.53874 | 1553 ft | 175 kts | 179° |
| 2026-05-06 17:02 | 28.05869 | -82.53911 | 1355 ft | 161 kts | 177° |
| 2026-05-06 17:03 | 28.04799 | -82.53947 | 1148 ft | 153 kts | 176° |
| 2026-05-06 17:03 | 28.03733 | -82.53981 | 955 ft | 153 kts | 181° |
| 2026-05-06 17:03 | 28.02671 | -82.54018 | 731 ft | 151 kts | 181° |
| 2026-05-06 17:03 | 28.01647 | -82.54054 | 516 ft | 144 kts | 182° |
| 2026-05-06 17:04 | 28.00654 | -82.54088 | 325 ft | 145 kts | 184° |
| 2026-05-06 17:04 | 27.99644 | -82.54120 | 152 ft | 145 kts | 184° |
| 2026-05-06 17:04 | 27.98641 | -82.54152 | 50 ft | 139 kts | 184° |
| 2026-05-06 17:04 | 27.97831 | -82.54185 | 46 ft | 74 kts | 182° |
| 2026-05-06 17:05 | 27.97468 | -82.54196 | 48 ft | 42 kts | 181° |
| 2026-05-06 17:05 | 27.97195 | -82.54206 | 49 ft | 36 kts | 182° |
| 2026-05-06 17:05 | 27.96985 | -82.54214 | 51 ft | 24 kts | 180° |
| 2026-05-06 17:05 | 27.96925 | -82.54115 | 49 ft | 16 kts | 59° |
| 2026-05-06 17:06 | 27.97029 | -82.54089 | 48 ft | 16 kts | 2° |
| 2026-05-06 17:06 | 27.97134 | -82.54085 | 48 ft | 15 kts | 2° |
| 2026-05-06 17:06 | 27.97238 | -82.54081 | 47 ft | 16 kts | 1° |
| 2026-05-06 17:06 | 27.97339 | -82.54062 | 47 ft | 12 kts | 41° |
| 2026-05-06 17:07 | 27.97380 | -82.53994 | 46 ft | 5 kts | 31° |
| 2026-05-06 17:07 | 27.97414 | -82.53991 | 46 ft | 5 kts | 360° |
| 2026-05-06 17:07 | 27.97424 | -82.53991 | 46 ft | 0 kts | 360° |
| 2026-05-06 17:10 | 27.97429 | -82.53991 | 46 ft | 4 kts | 360° |
| 2026-05-06 17:11 | 27.97498 | -82.53963 | 45 ft | 16 kts | 59° |
| 2026-05-06 17:11 | 27.97463 | -82.53834 | 45 ft | 19 kts | 124° |
| 2026-05-06 17:11 | 27.97391 | -82.53712 | 51 ft | 18 kts | 123° |
| 2026-05-06 17:11 | 27.97340 | -82.53583 | 52 ft | 18 kts | 108° |
| 2026-05-06 17:12 | 27.97315 | -82.53433 | 44 ft | 20 kts | 94° |
| 2026-05-06 17:12 | 27.97311 | -82.53264 | 42 ft | 22 kts | 91° |
| 2026-05-06 17:12 | 27.97308 | -82.53093 | 42 ft | 22 kts | 91° |
| 2026-05-06 17:12 | 27.97363 | -82.52988 | 40 ft | 15 kts | 358° |
| 2026-05-06 17:13 | 27.97470 | -82.52988 | 41 ft | 17 kts | 1° |
| 2026-05-06 17:13 | 27.97595 | -82.52984 | 41 ft | 20 kts | 1° |
| 2026-05-06 17:13 | 27.97738 | -82.52980 | 41 ft | 20 kts | 1° |
| 2026-05-06 17:13 | 27.97877 | -82.52976 | 39 ft | 20 kts | 1° |
| 2026-05-06 17:14 | 27.98009 | -82.52972 | 41 ft | 16 kts | 358° |
| 2026-05-06 17:14 | 27.98087 | -82.53036 | 42 ft | 12 kts | 322° |
| 2026-05-06 17:14 | 27.98159 | -82.53047 | 42 ft | 10 kts | 1° |
| 2026-05-06 17:14 | 27.98214 | -82.53064 | 42 ft | 6 kts | 301° |
| 2026-05-06 17:15 | 27.98219 | -82.53099 | 42 ft | 4 kts | 273° |
| 2026-05-06 17:15 | 27.98219 | -82.53117 | 42 ft | 1 kts | 272° |
| 2026-05-06 17:15 | 27.98219 | -82.53122 | 42 ft | 0 kts | 272° |